sensor_id;sensor_type;location;lat;lon;timestamp;P1;durP1;ratioP1;P2;durP2;ratioP2
31732;SDS011;18312;51.486;7.144;2022-10-13T00:00:38;26.58;;;11.05;;
31732;SDS011;18312;51.486;7.144;2022-10-13T00:03:05;24.27;;;10.50;;
31732;SDS011;18312;51.486;7.144;2022-10-13T00:05:34;23.33;;;9.73;;
31732;SDS011;18312;51.486;7.144;2022-10-13T00:08:05;18.77;;;9.15;;
31732;SDS011;18312;51.486;7.144;2022-10-13T00:10:34;20.77;;;9.30;;
31732;SDS011;18312;51.486;7.144;2022-10-13T00:13:02;18.90;;;8.90;;
31732;SDS011;18312;51.486;7.144;2022-10-13T00:15:28;21.48;;;9.65;;
31732;SDS011;18312;51.486;7.144;2022-10-13T00:17:56;22.55;;;9.38;;
31732;SDS011;18312;51.486;7.144;2022-10-13T00:20:22;22.92;;;10.00;;
31732;SDS011;18312;51.486;7.144;2022-10-13T00:22:49;21.30;;;9.15;;
31732;SDS011;18312;51.486;7.144;2022-10-13T00:25:16;25.05;;;11.20;;
31732;SDS011;18312;51.486;7.144;2022-10-13T00:27:46;18.63;;;8.60;;
31732;SDS011;18312;51.486;7.144;2022-10-13T00:30:13;23.33;;;10.32;;
31732;SDS011;18312;51.486;7.144;2022-10-13T00:32:40;21.85;;;9.55;;
31732;SDS011;18312;51.486;7.144;2022-10-13T00:35:09;23.13;;;10.00;;
31732;SDS011;18312;51.486;7.144;2022-10-13T00:37:42;17.65;;;9.43;;
31732;SDS011;18312;51.486;7.144;2022-10-13T00:40:09;28.02;;;10.23;;
31732;SDS011;18312;51.486;7.144;2022-10-13T00:42:39;29.02;;;11.25;;
31732;SDS011;18312;51.486;7.144;2022-10-13T00:45:11;27.65;;;10.10;;
31732;SDS011;18312;51.486;7.144;2022-10-13T00:47:46;20.88;;;8.60;;
31732;SDS011;18312;51.486;7.144;2022-10-13T00:52:44;22.50;;;10.18;;
31732;SDS011;18312;51.486;7.144;2022-10-13T00:55:12;24.13;;;9.48;;
31732;SDS011;18312;51.486;7.144;2022-10-13T00:57:46;26.08;;;9.88;;
31732;SDS011;18312;51.486;7.144;2022-10-13T01:00:20;23.67;;;9.73;;
31732;SDS011;18312;51.486;7.144;2022-10-13T01:02:48;26.38;;;10.68;;
31732;SDS011;18312;51.486;7.144;2022-10-13T01:05:15;24.92;;;9.73;;
31732;SDS011;18312;51.486;7.144;2022-10-13T01:07:43;20.23;;;9.55;;
31732;SDS011;18312;51.486;7.144;2022-10-13T01:10:13;21.40;;;8.73;;
31732;SDS011;18312;51.486;7.144;2022-10-13T01:12:49;23.13;;;8.90;;
31732;SDS011;18312;51.486;7.144;2022-10-13T01:15:27;31.27;;;10.07;;
31732;SDS011;18312;51.486;7.144;2022-10-13T01:18:02;25.85;;;10.15;;
31732;SDS011;18312;51.486;7.144;2022-10-13T01:20:41;25.33;;;9.88;;
31732;SDS011;18312;51.486;7.144;2022-10-13T01:23:41;19.13;;;9.48;;
31732;SDS011;18312;51.486;7.144;2022-10-13T01:26:36;21.55;;;8.02;;
31732;SDS011;18312;51.486;7.144;2022-10-13T01:29:26;20.88;;;9.30;;
31732;SDS011;18312;51.486;7.144;2022-10-13T01:32:13;21.15;;;9.20;;
31732;SDS011;18312;51.486;7.144;2022-10-13T01:34:50;19.88;;;9.90;;
31732;SDS011;18312;51.486;7.144;2022-10-13T01:37:21;24.13;;;10.52;;
31732;SDS011;18312;51.486;7.144;2022-10-13T01:40:00;23.85;;;9.88;;
31732;SDS011;18312;51.486;7.144;2022-10-13T01:42:34;17.75;;;9.13;;
31732;SDS011;18312;51.486;7.144;2022-10-13T01:45:05;25.17;;;9.68;;
31732;SDS011;18312;51.486;7.144;2022-10-13T01:47:34;23.02;;;9.63;;
31732;SDS011;18312;51.486;7.144;2022-10-13T01:50:04;22.63;;;9.25;;
31732;SDS011;18312;51.486;7.144;2022-10-13T01:52:33;22.03;;;8.97;;
31732;SDS011;18312;51.486;7.144;2022-10-13T01:55:05;22.95;;;8.75;;
31732;SDS011;18312;51.486;7.144;2022-10-13T01:57:34;20.92;;;9.32;;
31732;SDS011;18312;51.486;7.144;2022-10-13T02:00:05;26.27;;;10.45;;
31732;SDS011;18312;51.486;7.144;2022-10-13T02:02:39;19.90;;;9.20;;
31732;SDS011;18312;51.486;7.144;2022-10-13T02:05:18;17.95;;;9.00;;
31732;SDS011;18312;51.486;7.144;2022-10-13T02:07:53;22.10;;;9.52;;
31732;SDS011;18312;51.486;7.144;2022-10-13T02:10:22;18.58;;;8.40;;
31732;SDS011;18312;51.486;7.144;2022-10-13T02:12:57;20.50;;;8.55;;
31732;SDS011;18312;51.486;7.144;2022-10-13T02:15:29;23.38;;;9.20;;
31732;SDS011;18312;51.486;7.144;2022-10-13T02:17:59;22.38;;;8.93;;
31732;SDS011;18312;51.486;7.144;2022-10-13T02:20:27;14.00;;;8.65;;
31732;SDS011;18312;51.486;7.144;2022-10-13T02:22:57;28.33;;;8.90;;
31732;SDS011;18312;51.486;7.144;2022-10-13T02:25:27;26.50;;;9.10;;
31732;SDS011;18312;51.486;7.144;2022-10-13T02:27:56;25.10;;;9.25;;
31732;SDS011;18312;51.486;7.144;2022-10-13T02:30:29;22.40;;;8.20;;
31732;SDS011;18312;51.486;7.144;2022-10-13T02:32:57;21.00;;;8.63;;
31732;SDS011;18312;51.486;7.144;2022-10-13T02:35:24;18.65;;;8.35;;
31732;SDS011;18312;51.486;7.144;2022-10-13T02:37:51;15.82;;;8.02;;
31732;SDS011;18312;51.486;7.144;2022-10-13T02:40:20;16.38;;;8.00;;
31732;SDS011;18312;51.486;7.144;2022-10-13T02:42:46;18.50;;;8.65;;
31732;SDS011;18312;51.486;7.144;2022-10-13T02:45:13;23.60;;;8.63;;
31732;SDS011;18312;51.486;7.144;2022-10-13T02:47:41;19.17;;;9.13;;
31732;SDS011;18312;51.486;7.144;2022-10-13T02:50:08;20.73;;;7.93;;
31732;SDS011;18312;51.486;7.144;2022-10-13T02:52:35;19.05;;;8.38;;
31732;SDS011;18312;51.486;7.144;2022-10-13T02:55:02;16.75;;;7.45;;
31732;SDS011;18312;51.486;7.144;2022-10-13T02:57:30;20.75;;;8.43;;
31732;SDS011;18312;51.486;7.144;2022-10-13T02:59:57;23.27;;;8.23;;
31732;SDS011;18312;51.486;7.144;2022-10-13T03:02:25;20.02;;;8.05;;
31732;SDS011;18312;51.486;7.144;2022-10-13T03:05:00;22.42;;;7.80;;
31732;SDS011;18312;51.486;7.144;2022-10-13T03:07:27;23.27;;;9.02;;
31732;SDS011;18312;51.486;7.144;2022-10-13T03:09:54;14.88;;;7.93;;
31732;SDS011;18312;51.486;7.144;2022-10-13T03:12:20;19.30;;;7.88;;
31732;SDS011;18312;51.486;7.144;2022-10-13T03:14:47;14.30;;;8.00;;
31732;SDS011;18312;51.486;7.144;2022-10-13T03:17:14;21.85;;;8.45;;
31732;SDS011;18312;51.486;7.144;2022-10-13T03:19:40;17.33;;;8.70;;
31732;SDS011;18312;51.486;7.144;2022-10-13T03:22:08;17.75;;;7.75;;
31732;SDS011;18312;51.486;7.144;2022-10-13T03:24:38;21.38;;;8.57;;
31732;SDS011;18312;51.486;7.144;2022-10-13T03:27:08;15.38;;;8.40;;
31732;SDS011;18312;51.486;7.144;2022-10-13T03:29:35;19.20;;;8.13;;
31732;SDS011;18312;51.486;7.144;2022-10-13T03:32:06;20.75;;;9.20;;
31732;SDS011;18312;51.486;7.144;2022-10-13T03:34:35;17.08;;;8.80;;
31732;SDS011;18312;51.486;7.144;2022-10-13T03:37:04;20.53;;;7.83;;
31732;SDS011;18312;51.486;7.144;2022-10-13T03:39:32;23.58;;;8.40;;
31732;SDS011;18312;51.486;7.144;2022-10-13T03:41:59;20.13;;;8.38;;
31732;SDS011;18312;51.486;7.144;2022-10-13T03:44:26;23.90;;;9.43;;
31732;SDS011;18312;51.486;7.144;2022-10-13T03:46:53;21.05;;;7.93;;
31732;SDS011;18312;51.486;7.144;2022-10-13T03:49:20;21.70;;;8.82;;
31732;SDS011;18312;51.486;7.144;2022-10-13T03:51:47;18.13;;;8.77;;
31732;SDS011;18312;51.486;7.144;2022-10-13T03:54:14;26.13;;;8.93;;
31732;SDS011;18312;51.486;7.144;2022-10-13T03:56:42;22.92;;;9.63;;
31732;SDS011;18312;51.486;7.144;2022-10-13T03:59:09;22.10;;;8.80;;
31732;SDS011;18312;51.486;7.144;2022-10-13T04:01:38;22.88;;;8.85;;
31732;SDS011;18312;51.486;7.144;2022-10-13T04:04:05;18.85;;;8.40;;
31732;SDS011;18312;51.486;7.144;2022-10-13T04:06:33;22.63;;;9.50;;
31732;SDS011;18312;51.486;7.144;2022-10-13T04:08:59;18.05;;;9.35;;
31732;SDS011;18312;51.486;7.144;2022-10-13T04:11:26;20.83;;;9.60;;
31732;SDS011;18312;51.486;7.144;2022-10-13T04:13:55;21.20;;;8.95;;
31732;SDS011;18312;51.486;7.144;2022-10-13T04:16:24;19.75;;;8.48;;
31732;SDS011;18312;51.486;7.144;2022-10-13T04:18:53;18.13;;;8.40;;
31732;SDS011;18312;51.486;7.144;2022-10-13T04:21:20;17.58;;;8.07;;
31732;SDS011;18312;51.486;7.144;2022-10-13T04:23:47;20.30;;;9.07;;
31732;SDS011;18312;51.486;7.144;2022-10-13T04:26:15;21.58;;;8.07;;
31732;SDS011;18312;51.486;7.144;2022-10-13T04:28:43;19.33;;;8.77;;
31732;SDS011;18312;51.486;7.144;2022-10-13T04:31:12;16.23;;;8.23;;
31732;SDS011;18312;51.486;7.144;2022-10-13T04:33:41;20.42;;;8.57;;
31732;SDS011;18312;51.486;7.144;2022-10-13T04:36:09;21.70;;;8.48;;
31732;SDS011;18312;51.486;7.144;2022-10-13T04:38:38;25.48;;;9.02;;
31732;SDS011;18312;51.486;7.144;2022-10-13T04:41:07;21.20;;;8.93;;
31732;SDS011;18312;51.486;7.144;2022-10-13T04:43:35;20.83;;;8.55;;
31732;SDS011;18312;51.486;7.144;2022-10-13T04:46:02;18.65;;;7.70;;
31732;SDS011;18312;51.486;7.144;2022-10-13T04:48:31;18.17;;;9.15;;
31732;SDS011;18312;51.486;7.144;2022-10-13T04:50:59;24.30;;;8.85;;
31732;SDS011;18312;51.486;7.144;2022-10-13T04:53:26;23.73;;;9.50;;
31732;SDS011;18312;51.486;7.144;2022-10-13T04:55:54;18.00;;;7.75;;
31732;SDS011;18312;51.486;7.144;2022-10-13T04:58:20;18.85;;;8.13;;
31732;SDS011;18312;51.486;7.144;2022-10-13T05:00:47;24.88;;;8.43;;
31732;SDS011;18312;51.486;7.144;2022-10-13T05:03:14;20.95;;;8.38;;
31732;SDS011;18312;51.486;7.144;2022-10-13T05:05:42;19.48;;;8.15;;
31732;SDS011;18312;51.486;7.144;2022-10-13T05:08:12;19.40;;;8.45;;
31732;SDS011;18312;51.486;7.144;2022-10-13T05:10:39;20.15;;;8.05;;
31732;SDS011;18312;51.486;7.144;2022-10-13T05:13:05;23.25;;;7.93;;
31732;SDS011;18312;51.486;7.144;2022-10-13T05:15:32;21.23;;;8.85;;
31732;SDS011;18312;51.486;7.144;2022-10-13T05:17:59;15.18;;;8.25;;
31732;SDS011;18312;51.486;7.144;2022-10-13T05:20:26;15.68;;;7.88;;
31732;SDS011;18312;51.486;7.144;2022-10-13T05:22:54;14.52;;;7.45;;
31732;SDS011;18312;51.486;7.144;2022-10-13T05:25:22;18.45;;;6.93;;
31732;SDS011;18312;51.486;7.144;2022-10-13T05:27:48;19.65;;;7.78;;
31732;SDS011;18312;51.486;7.144;2022-10-13T05:30:15;15.73;;;8.45;;
31732;SDS011;18312;51.486;7.144;2022-10-13T05:32:42;22.23;;;7.88;;
31732;SDS011;18312;51.486;7.144;2022-10-13T05:35:12;22.88;;;7.50;;
31732;SDS011;18312;51.486;7.144;2022-10-13T05:37:39;18.15;;;7.57;;
31732;SDS011;18312;51.486;7.144;2022-10-13T05:40:07;16.90;;;7.68;;
31732;SDS011;18312;51.486;7.144;2022-10-13T05:42:34;16.48;;;7.32;;
31732;SDS011;18312;51.486;7.144;2022-10-13T05:45:02;19.00;;;8.63;;
31732;SDS011;18312;51.486;7.144;2022-10-13T05:47:30;19.38;;;7.85;;
31732;SDS011;18312;51.486;7.144;2022-10-13T05:49:56;18.98;;;7.43;;
31732;SDS011;18312;51.486;7.144;2022-10-13T05:52:25;11.30;;;5.40;;
31732;SDS011;18312;51.486;7.144;2022-10-13T05:54:57;20.52;;;7.20;;
31732;SDS011;18312;51.486;7.144;2022-10-13T05:57:30;24.00;;;7.50;;
31732;SDS011;18312;51.486;7.144;2022-10-13T06:00:03;20.38;;;8.15;;
31732;SDS011;18312;51.486;7.144;2022-10-13T06:02:31;19.25;;;7.88;;
31732;SDS011;18312;51.486;7.144;2022-10-13T06:05:03;19.23;;;7.05;;
31732;SDS011;18312;51.486;7.144;2022-10-13T06:07:35;22.05;;;7.60;;
31732;SDS011;18312;51.486;7.144;2022-10-13T06:10:02;13.82;;;7.20;;
31732;SDS011;18312;51.486;7.144;2022-10-13T06:12:30;14.88;;;6.78;;
31732;SDS011;18312;51.486;7.144;2022-10-13T06:14:57;14.45;;;7.30;;
31732;SDS011;18312;51.486;7.144;2022-10-13T06:17:24;19.83;;;7.72;;
31732;SDS011;18312;51.486;7.144;2022-10-13T06:19:53;20.17;;;7.43;;
31732;SDS011;18312;51.486;7.144;2022-10-13T06:22:19;22.15;;;8.23;;
31732;SDS011;18312;51.486;7.144;2022-10-13T06:24:46;15.30;;;6.90;;
31732;SDS011;18312;51.486;7.144;2022-10-13T06:27:13;13.07;;;6.63;;
31732;SDS011;18312;51.486;7.144;2022-10-13T06:29:41;12.43;;;6.28;;
31732;SDS011;18312;51.486;7.144;2022-10-13T06:32:07;15.57;;;6.93;;
31732;SDS011;18312;51.486;7.144;2022-10-13T06:34:40;23.13;;;6.90;;
31732;SDS011;18312;51.486;7.144;2022-10-13T06:37:07;18.77;;;7.80;;
31732;SDS011;18312;51.486;7.144;2022-10-13T06:39:34;16.10;;;6.78;;
31732;SDS011;18312;51.486;7.144;2022-10-13T06:42:01;16.55;;;7.65;;
31732;SDS011;18312;51.486;7.144;2022-10-13T06:44:28;16.98;;;7.32;;
31732;SDS011;18312;51.486;7.144;2022-10-13T06:47:03;15.00;;;7.18;;
31732;SDS011;18312;51.486;7.144;2022-10-13T06:49:30;15.43;;;7.45;;
31732;SDS011;18312;51.486;7.144;2022-10-13T06:51:57;16.35;;;7.90;;
31732;SDS011;18312;51.486;7.144;2022-10-13T06:54:26;15.75;;;8.07;;
31732;SDS011;18312;51.486;7.144;2022-10-13T06:56:53;20.67;;;7.03;;
31732;SDS011;18312;51.486;7.144;2022-10-13T06:59:19;19.10;;;7.40;;
31732;SDS011;18312;51.486;7.144;2022-10-13T07:01:50;21.63;;;7.57;;
31732;SDS011;18312;51.486;7.144;2022-10-13T07:04:18;19.90;;;7.40;;
31732;SDS011;18312;51.486;7.144;2022-10-13T07:06:45;18.15;;;7.97;;
31732;SDS011;18312;51.486;7.144;2022-10-13T07:09:12;15.38;;;6.72;;
31732;SDS011;18312;51.486;7.144;2022-10-13T07:11:38;13.77;;;7.25;;
31732;SDS011;18312;51.486;7.144;2022-10-13T07:14:08;18.88;;;7.10;;
31732;SDS011;18312;51.486;7.144;2022-10-13T07:16:35;15.30;;;8.15;;
31732;SDS011;18312;51.486;7.144;2022-10-13T07:19:04;19.55;;;7.45;;
31732;SDS011;18312;51.486;7.144;2022-10-13T07:21:32;18.95;;;7.78;;
31732;SDS011;18312;51.486;7.144;2022-10-13T07:24:00;17.15;;;7.18;;
31732;SDS011;18312;51.486;7.144;2022-10-13T07:26:27;21.35;;;8.02;;
31732;SDS011;18312;51.486;7.144;2022-10-13T07:28:57;16.45;;;7.53;;
31732;SDS011;18312;51.486;7.144;2022-10-13T07:31:24;21.10;;;7.63;;
31732;SDS011;18312;51.486;7.144;2022-10-13T07:33:51;19.15;;;7.68;;
31732;SDS011;18312;51.486;7.144;2022-10-13T07:36:17;13.82;;;7.18;;
31732;SDS011;18312;51.486;7.144;2022-10-13T07:38:45;15.70;;;8.02;;
31732;SDS011;18312;51.486;7.144;2022-10-13T07:41:12;20.27;;;7.65;;
31732;SDS011;18312;51.486;7.144;2022-10-13T07:43:42;19.70;;;8.13;;
31732;SDS011;18312;51.486;7.144;2022-10-13T07:46:12;15.75;;;7.63;;
31732;SDS011;18312;51.486;7.144;2022-10-13T07:48:39;19.10;;;6.57;;
31732;SDS011;18312;51.486;7.144;2022-10-13T07:51:07;20.55;;;7.90;;
31732;SDS011;18312;51.486;7.144;2022-10-13T07:53:35;21.47;;;7.73;;
31732;SDS011;18312;51.486;7.144;2022-10-13T07:56:04;17.48;;;7.68;;
31732;SDS011;18312;51.486;7.144;2022-10-13T07:58:35;15.32;;;7.10;;
31732;SDS011;18312;51.486;7.144;2022-10-13T08:01:06;19.83;;;7.47;;
31732;SDS011;18312;51.486;7.144;2022-10-13T08:06:01;16.55;;;7.78;;
31732;SDS011;18312;51.486;7.144;2022-10-13T08:08:32;23.40;;;8.13;;
31732;SDS011;18312;51.486;7.144;2022-10-13T08:11:00;12.32;;;7.18;;
31732;SDS011;18312;51.486;7.144;2022-10-13T08:13:28;14.40;;;6.82;;
31732;SDS011;18312;51.486;7.144;2022-10-13T08:15:58;24.55;;;8.40;;
31732;SDS011;18312;51.486;7.144;2022-10-13T08:18:25;18.27;;;8.10;;
31732;SDS011;18312;51.486;7.144;2022-10-13T08:20:52;15.70;;;7.88;;
31732;SDS011;18312;51.486;7.144;2022-10-13T08:23:33;18.08;;;7.32;;
31732;SDS011;18312;51.486;7.144;2022-10-13T08:26:02;19.20;;;6.65;;
31732;SDS011;18312;51.486;7.144;2022-10-13T08:28:31;18.52;;;7.85;;
31732;SDS011;18312;51.486;7.144;2022-10-13T08:30:57;16.67;;;7.28;;
31732;SDS011;18312;51.486;7.144;2022-10-13T08:33:24;17.67;;;7.03;;
31732;SDS011;18312;51.486;7.144;2022-10-13T08:35:52;19.05;;;7.45;;
31732;SDS011;18312;51.486;7.144;2022-10-13T08:38:19;17.42;;;7.78;;
31732;SDS011;18312;51.486;7.144;2022-10-13T08:40:48;19.97;;;8.53;;
31732;SDS011;18312;51.486;7.144;2022-10-13T08:43:16;19.90;;;7.57;;
31732;SDS011;18312;51.486;7.144;2022-10-13T08:45:47;12.98;;;5.68;;
31732;SDS011;18312;51.486;7.144;2022-10-13T08:48:16;23.98;;;7.45;;
31732;SDS011;18312;51.486;7.144;2022-10-13T08:50:46;14.85;;;7.22;;
31732;SDS011;18312;51.486;7.144;2022-10-13T08:53:17;14.48;;;6.93;;
31732;SDS011;18312;51.486;7.144;2022-10-13T08:55:51;17.65;;;7.25;;
31732;SDS011;18312;51.486;7.144;2022-10-13T08:58:24;16.90;;;7.28;;
31732;SDS011;18312;51.486;7.144;2022-10-13T09:00:58;17.80;;;7.03;;
31732;SDS011;18312;51.486;7.144;2022-10-13T09:03:31;18.27;;;7.18;;
31732;SDS011;18312;51.486;7.144;2022-10-13T09:06:09;12.07;;;6.68;;
31732;SDS011;18312;51.486;7.144;2022-10-13T09:08:43;17.27;;;6.88;;
31732;SDS011;18312;51.486;7.144;2022-10-13T09:11:20;15.02;;;6.45;;
31732;SDS011;18312;51.486;7.144;2022-10-13T09:13:47;12.10;;;6.60;;
31732;SDS011;18312;51.486;7.144;2022-10-13T09:16:25;15.15;;;6.43;;
31732;SDS011;18312;51.486;7.144;2022-10-13T09:18:54;17.40;;;6.80;;
31732;SDS011;18312;51.486;7.144;2022-10-13T09:21:42;17.33;;;6.47;;
31732;SDS011;18312;51.486;7.144;2022-10-13T09:24:12;16.35;;;6.78;;
31732;SDS011;18312;51.486;7.144;2022-10-13T09:26:41;18.35;;;7.38;;
31732;SDS011;18312;51.486;7.144;2022-10-13T09:29:09;16.77;;;6.68;;
31732;SDS011;18312;51.486;7.144;2022-10-13T09:31:42;10.30;;;6.03;;
31732;SDS011;18312;51.486;7.144;2022-10-13T09:34:12;14.65;;;6.00;;
31732;SDS011;18312;51.486;7.144;2022-10-13T09:36:54;15.98;;;5.75;;
31732;SDS011;18312;51.486;7.144;2022-10-13T09:39:25;15.30;;;5.90;;
31732;SDS011;18312;51.486;7.144;2022-10-13T09:42:07;14.95;;;5.40;;
31732;SDS011;18312;51.486;7.144;2022-10-13T09:44:47;14.93;;;6.15;;
31732;SDS011;18312;51.486;7.144;2022-10-13T09:47:22;16.15;;;5.97;;
31732;SDS011;18312;51.486;7.144;2022-10-13T09:49:57;11.70;;;5.55;;
31732;SDS011;18312;51.486;7.144;2022-10-13T09:52:26;17.10;;;5.28;;
31732;SDS011;18312;51.486;7.144;2022-10-13T09:54:55;11.80;;;5.75;;
31732;SDS011;18312;51.486;7.144;2022-10-13T09:57:26;13.68;;;5.07;;
31732;SDS011;18312;51.486;7.144;2022-10-13T10:00:00;9.27;;;5.28;;
31732;SDS011;18312;51.486;7.144;2022-10-13T10:02:34;13.35;;;5.97;;
31732;SDS011;18312;51.486;7.144;2022-10-13T10:05:04;15.05;;;6.65;;
31732;SDS011;18312;51.486;7.144;2022-10-13T10:07:41;13.30;;;5.68;;
31732;SDS011;18312;51.486;7.144;2022-10-13T10:10:11;12.25;;;6.22;;
31732;SDS011;18312;51.486;7.144;2022-10-13T10:12:47;15.02;;;5.47;;
31732;SDS011;18312;51.486;7.144;2022-10-13T10:15:16;10.80;;;6.40;;
31732;SDS011;18312;51.486;7.144;2022-10-13T10:17:50;10.35;;;5.85;;
31732;SDS011;18312;51.486;7.144;2022-10-13T10:20:28;12.68;;;5.10;;
31732;SDS011;18312;51.486;7.144;2022-10-13T10:23:10;11.57;;;5.47;;
31732;SDS011;18312;51.486;7.144;2022-10-13T10:25:43;13.65;;;6.00;;
31732;SDS011;18312;51.486;7.144;2022-10-13T10:28:28;16.48;;;6.25;;
31732;SDS011;18312;51.486;7.144;2022-10-13T10:31:25;10.65;;;5.70;;
31732;SDS011;18312;51.486;7.144;2022-10-13T10:34:06;14.90;;;5.85;;
31732;SDS011;18312;51.486;7.144;2022-10-13T10:36:51;13.38;;;6.18;;
31732;SDS011;18312;51.486;7.144;2022-10-13T10:39:39;14.25;;;5.40;;
31732;SDS011;18312;51.486;7.144;2022-10-13T10:42:10;13.40;;;5.93;;
31732;SDS011;18312;51.486;7.144;2022-10-13T10:44:51;13.43;;;5.85;;
31732;SDS011;18312;51.486;7.144;2022-10-13T10:47:22;11.20;;;5.22;;
31732;SDS011;18312;51.486;7.144;2022-10-13T10:49:59;10.57;;;4.80;;
31732;SDS011;18312;51.486;7.144;2022-10-13T10:52:30;9.88;;;4.85;;
31732;SDS011;18312;51.486;7.144;2022-10-13T10:55:09;10.00;;;4.45;;
31732;SDS011;18312;51.486;7.144;2022-10-13T10:57:45;8.25;;;3.65;;
31732;SDS011;18312;51.486;7.144;2022-10-13T11:00:24;8.45;;;5.18;;
31732;SDS011;18312;51.486;7.144;2022-10-13T11:05:22;11.00;;;4.20;;
31732;SDS011;18312;51.486;7.144;2022-10-13T11:07:55;9.60;;;4.72;;
31732;SDS011;18312;51.486;7.144;2022-10-13T11:10:23;11.98;;;3.83;;
31732;SDS011;18312;51.486;7.144;2022-10-13T11:15:53;15.00;;;5.20;;
31732;SDS011;18312;51.486;7.144;2022-10-13T11:21:21;9.82;;;3.72;;
31732;SDS011;18312;51.486;7.144;2022-10-13T11:23:48;12.38;;;4.43;;
31732;SDS011;18312;51.486;7.144;2022-10-13T11:26:28;13.02;;;4.40;;
31732;SDS011;18312;51.486;7.144;2022-10-13T11:28:57;9.63;;;4.65;;
31732;SDS011;18312;51.486;7.144;2022-10-13T11:31:26;16.80;;;3.90;;
31732;SDS011;18312;51.486;7.144;2022-10-13T11:33:56;9.68;;;3.75;;
31732;SDS011;18312;51.486;7.144;2022-10-13T11:36:42;7.03;;;4.18;;
31732;SDS011;18312;51.486;7.144;2022-10-13T11:39:25;9.20;;;4.40;;
31732;SDS011;18312;51.486;7.144;2022-10-13T11:42:34;9.77;;;4.80;;
31732;SDS011;18312;51.486;7.144;2022-10-13T11:45:22;8.02;;;4.28;;
31732;SDS011;18312;51.486;7.144;2022-10-13T11:48:26;10.93;;;3.65;;
31732;SDS011;18312;51.486;7.144;2022-10-13T11:51:16;12.63;;;4.70;;
31732;SDS011;18312;51.486;7.144;2022-10-13T11:53:57;10.88;;;4.10;;
31732;SDS011;18312;51.486;7.144;2022-10-13T11:56:32;10.60;;;4.70;;
31732;SDS011;18312;51.486;7.144;2022-10-13T11:59:00;9.15;;;4.60;;
31732;SDS011;18312;51.486;7.144;2022-10-13T12:01:27;13.55;;;4.82;;
31732;SDS011;18312;51.486;7.144;2022-10-13T12:03:54;13.05;;;4.80;;
31732;SDS011;18312;51.486;7.144;2022-10-13T12:06:26;12.55;;;4.00;;
31732;SDS011;18312;51.486;7.144;2022-10-13T12:09:00;8.48;;;3.22;;
31732;SDS011;18312;51.486;7.144;2022-10-13T12:11:29;10.35;;;4.90;;
31732;SDS011;18312;51.486;7.144;2022-10-13T12:13:59;8.80;;;4.15;;
31732;SDS011;18312;51.486;7.144;2022-10-13T12:16:26;11.98;;;4.30;;
31732;SDS011;18312;51.486;7.144;2022-10-13T12:19:04;12.02;;;3.97;;
31732;SDS011;18312;51.486;7.144;2022-10-13T12:21:32;10.52;;;4.63;;
31732;SDS011;18312;51.486;7.144;2022-10-13T12:24:06;13.25;;;4.70;;
31732;SDS011;18312;51.486;7.144;2022-10-13T12:26:34;10.57;;;4.18;;
31732;SDS011;18312;51.486;7.144;2022-10-13T12:29:01;18.08;;;4.93;;
31732;SDS011;18312;51.486;7.144;2022-10-13T12:31:37;10.60;;;4.20;;
31732;SDS011;18312;51.486;7.144;2022-10-13T12:34:12;8.50;;;4.38;;
31732;SDS011;18312;51.486;7.144;2022-10-13T12:36:43;15.48;;;5.18;;
31732;SDS011;18312;51.486;7.144;2022-10-13T12:39:18;8.75;;;4.53;;
31732;SDS011;18312;51.486;7.144;2022-10-13T12:41:45;16.00;;;5.45;;
31732;SDS011;18312;51.486;7.144;2022-10-13T12:44:17;10.93;;;5.03;;
31732;SDS011;18312;51.486;7.144;2022-10-13T12:46:46;18.55;;;5.10;;
31732;SDS011;18312;51.486;7.144;2022-10-13T12:49:18;11.88;;;5.30;;
31732;SDS011;18312;51.486;7.144;2022-10-13T12:51:46;17.10;;;5.95;;
31732;SDS011;18312;51.486;7.144;2022-10-13T12:54:20;15.05;;;6.13;;
31732;SDS011;18312;51.486;7.144;2022-10-13T12:56:56;16.65;;;6.35;;
31732;SDS011;18312;51.486;7.144;2022-10-13T12:59:24;16.15;;;6.13;;
31732;SDS011;18312;51.486;7.144;2022-10-13T13:01:58;15.20;;;6.22;;
31732;SDS011;18312;51.486;7.144;2022-10-13T13:10:01;8.45;;;5.32;;
31732;SDS011;18312;51.486;7.144;2022-10-13T13:12:38;11.68;;;5.88;;
31732;SDS011;18312;51.486;7.144;2022-10-13T13:21:06;10.82;;;4.88;;
31732;SDS011;18312;51.486;7.144;2022-10-13T13:23:33;10.32;;;4.90;;
31732;SDS011;18312;51.486;7.144;2022-10-13T13:26:02;13.98;;;5.10;;
31732;SDS011;18312;51.486;7.144;2022-10-13T13:28:35;7.60;;;4.78;;
31732;SDS011;18312;51.486;7.144;2022-10-13T13:31:02;14.23;;;5.88;;
31732;SDS011;18312;51.486;7.144;2022-10-13T13:33:29;10.77;;;5.75;;
31732;SDS011;18312;51.486;7.144;2022-10-13T13:35:56;11.88;;;5.47;;
31732;SDS011;18312;51.486;7.144;2022-10-13T13:38:23;16.38;;;5.30;;
31732;SDS011;18312;51.486;7.144;2022-10-13T13:40:49;11.48;;;5.78;;
31732;SDS011;18312;51.486;7.144;2022-10-13T13:43:18;12.80;;;5.43;;
31732;SDS011;18312;51.486;7.144;2022-10-13T13:45:44;13.88;;;6.28;;
31732;SDS011;18312;51.486;7.144;2022-10-13T13:48:11;17.45;;;6.28;;
31732;SDS011;18312;51.486;7.144;2022-10-13T13:50:38;13.32;;;7.00;;
31732;SDS011;18312;51.486;7.144;2022-10-13T13:53:05;15.88;;;6.70;;
31732;SDS011;18312;51.486;7.144;2022-10-13T13:55:32;12.15;;;5.65;;
31732;SDS011;18312;51.486;7.144;2022-10-13T13:57:59;11.93;;;5.82;;
31732;SDS011;18312;51.486;7.144;2022-10-13T14:00:28;11.60;;;5.28;;
31732;SDS011;18312;51.486;7.144;2022-10-13T14:02:55;14.55;;;5.45;;
31732;SDS011;18312;51.486;7.144;2022-10-13T14:05:22;15.55;;;6.45;;
31732;SDS011;18312;51.486;7.144;2022-10-13T14:07:51;11.20;;;5.80;;
31732;SDS011;18312;51.486;7.144;2022-10-13T14:10:18;12.73;;;6.50;;
31732;SDS011;18312;51.486;7.144;2022-10-13T14:12:46;11.18;;;6.00;;
31732;SDS011;18312;51.486;7.144;2022-10-13T14:15:13;9.52;;;5.65;;
31732;SDS011;18312;51.486;7.144;2022-10-13T14:17:41;15.30;;;5.40;;
31732;SDS011;18312;51.486;7.144;2022-10-13T14:20:08;15.43;;;5.03;;
31732;SDS011;18312;51.486;7.144;2022-10-13T14:22:35;10.45;;;5.20;;
31732;SDS011;18312;51.486;7.144;2022-10-13T14:25:05;12.48;;;5.53;;
31732;SDS011;18312;51.486;7.144;2022-10-13T14:27:33;9.95;;;5.00;;
31732;SDS011;18312;51.486;7.144;2022-10-13T14:30:02;14.68;;;5.25;;
31732;SDS011;18312;51.486;7.144;2022-10-13T14:32:30;9.40;;;4.60;;
31732;SDS011;18312;51.486;7.144;2022-10-13T14:34:58;12.18;;;5.30;;
31732;SDS011;18312;51.486;7.144;2022-10-13T14:37:28;13.75;;;4.75;;
31732;SDS011;18312;51.486;7.144;2022-10-13T14:39:55;14.02;;;5.75;;
31732;SDS011;18312;51.486;7.144;2022-10-13T14:42:22;12.40;;;5.80;;
31732;SDS011;18312;51.486;7.144;2022-10-13T14:44:48;11.18;;;5.68;;
31732;SDS011;18312;51.486;7.144;2022-10-13T14:47:15;10.05;;;5.10;;
31732;SDS011;18312;51.486;7.144;2022-10-13T14:49:42;11.70;;;5.75;;
31732;SDS011;18312;51.486;7.144;2022-10-13T14:52:10;12.68;;;6.13;;
31732;SDS011;18312;51.486;7.144;2022-10-13T14:54:36;11.23;;;5.97;;
31732;SDS011;18312;51.486;7.144;2022-10-13T14:57:03;15.55;;;6.97;;
31732;SDS011;18312;51.486;7.144;2022-10-13T14:59:32;9.93;;;5.90;;
31732;SDS011;18312;51.486;7.144;2022-10-13T15:01:58;12.82;;;6.05;;
31732;SDS011;18312;51.486;7.144;2022-10-13T15:04:25;16.50;;;6.40;;
31732;SDS011;18312;51.486;7.144;2022-10-13T15:06:52;12.88;;;7.43;;
31732;SDS011;18312;51.486;7.144;2022-10-13T15:09:20;16.63;;;7.57;;
31732;SDS011;18312;51.486;7.144;2022-10-13T15:11:46;17.25;;;6.80;;
31732;SDS011;18312;51.486;7.144;2022-10-13T15:14:13;16.80;;;7.63;;
31732;SDS011;18312;51.486;7.144;2022-10-13T15:16:40;18.65;;;8.23;;
31732;SDS011;18312;51.486;7.144;2022-10-13T15:19:06;18.35;;;8.07;;